Flight Track Log - Related Links

Times and Time Zones

All times are in EDT time to prevent confusion due to time zone crossing. See the TRS359 flight status page for this flight to view local times or setup timezone preferences in your user account.

Time Position Orientation Groundspeed Altitude Reporting Facility
EDT Latitude Longitude Course Direction KTS MPH feet Rate Location/Type
Sun 07:34:01 AM 39.3242 -94.7194 39° Northeast 190 219 2,100  Level Kansas City Center
Sun 07:35:01 AM 39.3581 -94.6839 39° Northeast 199 229 3,400 1,884 Climbing Kansas City Center
Sun 07:36:02 AM 39.3239 -94.5992 118° Southeast 250 288 5,900 2,331 Climbing Kansas City Center
Sun 07:37:02 AM 39.2847 -94.5222 123° Southeast 265 305 8,100 2,281 Climbing Kansas City Center
Sun 07:38:03 AM 39.2453 -94.4375 121° Southeast 285 328 10,500 1,884 Climbing Kansas City Center
Sun 07:39:03 AM 39.1919 -94.3267 122° Southeast 331 381 11,900 1,636 Climbing Kansas City Center
Sun 07:40:04 AM 39.1406 -94.2211 122° Southeast 361 415 13,800 1,884 Climbing Kansas City Center
Sun 07:41:04 AM 39.0939 -94.1075 118° Southeast 374 430 15,700 1,934 Climbing Kansas City Center
Sun 07:42:05 AM 39.0861 -93.9783 94° East 375 432 17,700 2,132 Climbing Kansas City Center
Sun 07:43:05 AM 39.0761 -93.8236 95° East 388 447 20,000 2,033 Climbing Kansas City Center
Sun 07:44:06 AM 39.0669 -93.6869 95° East 402 463 21,800 1,785 Climbing Kansas City Center
Sun 07:45:06 AM 39.0583 -93.5475 95° East 408 470 23,600 1,736 Climbing Kansas City Center
Sun 07:46:07 AM 39.0472 -93.3875 95° East 414 476 25,300 1,525 Climbing Kansas City Center
Sun 07:47:08 AM 39.0378 -93.2369 95° East 422 486 26,700 1,339 Climbing Kansas City Center
Sun 07:48:08 AM 39.0256 -93.0850 96° East 428 493 28,000 1,388 Climbing Kansas City Center
Sun 07:49:09 AM 39.0147 -92.9308 95° East 435 501 29,500 1,488 Climbing Kansas City Center
Sun 07:50:09 AM 38.9808 -92.7642 105° East 441 507 31,000 1,587 Climbing Kansas City Center
Sun 07:51:10 AM 38.9367 -92.6175 111° Southeast 440 506 32,700 984 Climbing Kansas City Center
Sun 07:52:11 AM 38.8919 -92.4736 112° Southeast 434 499 33,000 149 Climbing Kansas City Center
Sun 07:53:11 AM 38.8475 -92.3281 111° Southeast 434 499 33,000  Level Kansas City Center
Sun 07:54:12 AM 38.7964 -92.1892 115° Southeast 430 495 33,000  Level Kansas City Center
Sun 07:55:12 AM 38.7258 -92.0631 126° Southeast 431 496 33,000  Level Kansas City Center
Sun 07:56:13 AM 38.6558 -91.9372 125° Southeast 430 495 33,000  Level Kansas City Center
Sun 07:57:14 AM 38.5842 -91.8114 126° Southeast 432 497 33,000  Level Kansas City Center
Sun 07:58:14 AM 38.5125 -91.6844 126° Southeast 435 501 33,000  Level Kansas City Center
Sun 07:59:15 AM 38.4406 -91.5569 126° Southeast 437 503 33,000  Level Kansas City Center
Sun 08:00:15 AM 38.3669 -91.4300 126° Southeast 440 506 33,000  Level Kansas City Center
Sun 08:01:16 AM 38.3100 -91.3297 126° Southeast 438 504 33,000  Level Kansas City Center
Sun 08:02:17 AM 38.2242 -91.1831 127° Southeast 437 503 33,000  Level Kansas City Center
Sun 08:03:17 AM 38.1544 -91.0578 125° Southeast 430 495 33,000  Level Kansas City Center
Sun 08:04:18 AM 38.0867 -90.9411 126° Southeast 428 493 33,000  Level Kansas City Center
Sun 08:05:18 AM 38.0158 -90.8200 127° Southeast 429 494 33,000  Level Kansas City Center
Sun 08:06:19 AM 37.9458 -90.7008 127° Southeast 427 491 33,000  Level Kansas City Center
Sun 08:07:20 AM 37.8775 -90.5822 126° Southeast 422 486 33,000  Level Kansas City Center
Sun 08:08:20 AM 37.8072 -90.4631 127° Southeast 423 487 33,000  Level Kansas City Center
Sun 08:09:21 AM 37.7375 -90.3444 127° Southeast 424 488 33,000  Level Kansas City Center
Sun 08:10:21 AM 37.6667 -90.2242 127° Southeast 426 490 33,000  Level Kansas City Center
Sun 08:11:22 AM 37.6136 -90.0900 116° Southeast 431 496 33,000  Level Kansas City Center
Sun 08:12:23 AM 37.5553 -89.9467 117° Southeast 429 494 33,000  Level Kansas City Center
Sun 08:13:23 AM 37.5008 -89.8136 117° Southeast 427 491 33,000  Level Kansas City Center
Sun 08:14:24 AM 37.4464 -89.6808 117° Southeast 426 490 33,000  Level Kansas City Center
Sun 08:15:24 AM 37.3919 -89.5503 118° Southeast 421 484 33,000  Level Kansas City Center
Sun 08:15:56 AM 37.3600 -89.4775 119° Southeast 422 486 33,000  Level Memphis Center
Sun 08:16:56 AM 37.3050 -89.3478 118° Southeast 422 486 33,000  Level Memphis Center
Sun 08:17:56 AM 37.2517 -89.2181 117° Southeast 422 486 33,000  Level Memphis Center
Sun 08:18:56 AM 37.1964 -89.0939 119° Southeast 417 480 33,000  Level Memphis Center
Sun 08:19:56 AM 37.1428 -88.9622 117° Southeast 412 474 33,000  Level Memphis Center
Sun 08:20:56 AM 37.0892 -88.8356 118° Southeast 412 474 33,000  Level Memphis Center
Sun 08:21:56 AM 37.0356 -88.7092 118° Southeast 412 474 33,000  Level Memphis Center
Sun 08:22:56 AM 36.9903 -88.6089 119° Southeast 412 474 33,000  Level Memphis Center
Sun 08:23:56 AM 36.9342 -88.4700 117° Southeast 412 474 33,000  Level Memphis Center
Sun 08:24:56 AM 36.8781 -88.3442 119° Southeast 412 474 33,000  Level Memphis Center
Sun 08:25:56 AM 36.8239 -88.2186 118° Southeast 412 474 33,000  Level Memphis Center
Sun 08:26:56 AM 36.7631 -88.0881 120° Southeast 417 480 33,000  Level Memphis Center
Sun 08:27:56 AM 36.7086 -87.9578 118° Southeast 422 486 33,000  Level Memphis Center
Sun 08:28:56 AM 36.6497 -87.8303 120° Southeast 422 486 33,000  Level Memphis Center
Sun 08:29:56 AM 36.5928 -87.7028 119° Southeast 422 486 33,000  Level Memphis Center
Sun 08:30:56 AM 36.5358 -87.5703 118° Southeast 428 493 33,000  Level Memphis Center
Sun 08:31:56 AM 36.4767 -87.4408 120° Southeast 428 493 33,000  Level Memphis Center
Sun 08:32:56 AM 36.4192 -87.3139 119° Southeast 421 484 33,000  Level Memphis Center
Sun 08:33:56 AM 36.3619 -87.1844 119° Southeast 421 484 33,000  Level Memphis Center
Sun 08:34:56 AM 36.2978 -87.0456 120° Southeast 421 484 33,000  Level Memphis Center
Sun 08:35:56 AM 36.2444 -86.9267 119° Southeast 431 496 33,000  Level Memphis Center
Sun 08:36:56 AM 36.1847 -86.7981 120° Southeast 426 490 33,000  Level Memphis Center
Sun 08:37:56 AM 36.1186 -86.6775 124° Southeast 426 490 33,000  Level Memphis Center
Sun 08:38:56 AM 36.0244 -86.5972 145° Southeast 416 479 33,000  Level Memphis Center
Sun 08:39:56 AM 35.9175 -86.5072 146° Southeast 427 491 33,000  Level Memphis Center
Sun 08:40:56 AM 35.8169 -86.4275 147° Southeast 427 491 33,000  Level Memphis Center
Sun 08:42:34 AM 35.6558 -86.2956 146° Southeast 431 496 33,000  Level Atlanta Center
Sun 08:43:34 AM 35.5592 -86.2189 147° Southeast 425 489 33,000  Level Atlanta Center
Sun 08:44:34 AM 35.4728 -86.1503 147° Southeast 420 483 33,000 -100 Level Atlanta Center
Sun 08:45:34 AM 35.3739 -86.0714 147° Southeast 425 489 32,800 -550 Descending Atlanta Center
Sun 08:46:34 AM 35.2814 -85.9953 146° Southeast 419 482 31,900 -900 Descending Atlanta Center
Sun 08:47:34 AM 35.1844 -85.9219 148° Southeast 413 475 31,000 -900 Descending Atlanta Center
Sun 08:48:34 AM 35.0958 -85.8489 146° Southeast 406 467 30,100 -900 Descending Atlanta Center
Sun 08:49:34 AM 35.0008 -85.7731 147° Southeast 406 467 29,200 -900 Descending Atlanta Center
Sun 08:50:34 AM 34.9081 -85.7028 148° Southeast 406 467 28,300 -908 Descending Atlanta Center
Sun 08:51:33 AM 34.8169 -85.6303 147° Southeast 406 467 27,400 -908 Descending Atlanta Center
Sun 08:52:33 AM 34.7283 -85.5603 147° Southeast 401 461 26,500 -900 Descending Atlanta Center
Sun 08:53:33 AM 34.6394 -85.4906 147° Southeast 389 448 25,600 -900 Descending Atlanta Center
Sun 08:54:33 AM 34.5525 -85.4233 148° Southeast 384 442 24,700 -900 Descending Atlanta Center
Sun 08:55:33 AM 34.4633 -85.3539 147° Southeast 384 442 23,800 -1,500 Descending Atlanta Center
Sun 08:56:33 AM 34.3725 -85.2819 147° Southeast 373 429 21,700 -2,300 Descending Atlanta Center
Sun 08:57:33 AM 34.2894 -85.2181 148° Southeast 362 417 19,200 -2,500 Descending Atlanta Center
Sun 08:58:33 AM 34.2086 -85.1542 147° Southeast 362 417 16,700 -2,300 Descending Atlanta Center
Sun 08:59:33 AM 34.1364 -85.0853 142° Southeast 339 390 14,600 -1,450 Descending Atlanta Center
Sun 09:00:33 AM 34.0661 -84.9967 134° Southeast 353 406 13,800 -850 Descending Atlanta Center
Sun 09:01:33 AM 34.0061 -84.9208 134° Southeast 358 412 12,900 -950 Descending Atlanta Center
Sun 09:02:33 AM 33.9378 -84.8325 133° Southeast 352 405 11,900 -950 Descending Atlanta Center
Sun 09:03:33 AM 33.8717 -84.7469 133° Southeast 352 405 11,000 -621 Descending Atlanta Center
Sun 09:04:00 AM 33.8333 -84.7000 135° Southeast 346 398 11,000  Level Atlanta TRACON
Sun 09:04:54 AM 33.7833 -84.6333 132° Southeast 281 323 11,000  Level Atlanta TRACON
Sun 09:05:54 AM 33.7333 -84.5667 132° Southeast 278 320 11,000 -400 Level Atlanta TRACON
Sun 09:06:54 AM 33.7333 -84.4667 90° East 310 357 10,200 -1,381 Descending Atlanta TRACON
Sun 09:08:00 AM 33.7333 -84.3667 90° East 299 344 8,100 -1,714 Descending Atlanta TRACON
Sun 09:09:00 AM 33.7333 -84.2667 90° East 283 326 6,600 -1,350 Descending Atlanta TRACON
Sun 09:10:00 AM 33.7333 -84.1667 90° East 278 320 5,400 -842 Descending Atlanta TRACON
Sun 09:10:54 AM 33.7333 -84.0833 90° East 240 276 5,000 -200 Descending Atlanta TRACON
Sun 09:12:00 AM 33.7333 -84.0167 90° East 209 241 5,000  Level Atlanta TRACON
Sun 09:12:54 AM 33.7167 -83.9667 112° Southeast 210 242 5,000  Level Atlanta TRACON
Sun 09:13:54 AM 33.6667 -83.9667 180° South 202 232 5,000  Level Atlanta TRACON
Sun 09:14:48 AM 33.6500 -84.0167 248° West 190 219 5,000  Level Atlanta TRACON
Sun 09:15:48 AM 33.6500 -84.0833 270° West 175 201 5,000  Level Atlanta TRACON
Sun 09:16:48 AM 33.6500 -84.1333 270° West 178 205 5,000 -200 Level Atlanta TRACON
Sun 09:17:48 AM 33.6500 -84.2000 270° West 176 203 4,600 -714 Descending Atlanta TRACON
Sun 09:18:54 AM 33.6500 -84.2500 270° West 177 204 3,500 -952 Descending Atlanta TRACON
Sun 09:19:54 AM 33.6500 -84.3167 270° West 170 196 2,600 -850 Descending Atlanta TRACON
Sun 09:20:54 AM 33.6500 -84.3667 270° West 126 145 1,800 -737 Descending Atlanta TRACON
Sun 09:21:48 AM 33.6500 -84.4000 270° West 127 146 1,200 -667 Descending Atlanta TRACON

Login

Don't have an account? Register now (free) for customized features, flight alerts, and more!